Time;durP1;ratioP1;P1;durP2;ratioP2;P2;SDS_P1;SDS_P2;PMS_P1;PMS_P2;Temp;Humidity;BMP_temperature;BMP_pressure;BME280_temperature;BME280_humidity;BME280_pressure;Samples;Min_cycle;Max_cycle;Signal;HPM_P1;HPM_P2
2023/10/03 00:01:18;;;;;;;9.40;5.88;;;21.40;71.30;;;;;;4979927;28;20034;-78
2023/10/03 00:03:44;;;;;;;9.27;5.70;;;21.40;71.40;;;;;;4979428;28;20084;-79
2023/10/03 00:06:09;;;;;;;10.05;6.13;;;21.40;71.40;;;;;;4979047;28;20483;-79
2023/10/03 00:08:35;;;;;;;10.00;5.70;;;21.40;71.40;;;;;;4979235;28;20030;-79
2023/10/03 00:11:01;;;;;;;9.55;6.25;;;21.40;71.40;;;;;;5015586;28;20497;-79
2023/10/03 00:13:27;;;;;;;8.75;5.40;;;21.40;71.40;;;;;;4998780;28;20501;-78
2023/10/03 00:15:53;;;;;;;10.10;5.75;;;21.40;72.00;;;;;;4998725;28;20033;-78
2023/10/03 00:18:19;;;;;;;9.25;5.45;;;21.40;71.50;;;;;;4999016;28;20029;-79
2023/10/03 00:20:44;;;;;;;7.88;5.05;;;21.30;71.40;;;;;;5014953;28;20113;-79
2023/10/03 00:23:10;;;;;;;9.50;5.50;;;21.30;71.40;;;;;;5014902;28;20391;-79
2023/10/03 00:25:38;;;;;;;9.60;5.47;;;21.30;71.40;;;;;;5016007;28;20074;-79
2023/10/03 00:28:05;;;;;;;9.23;5.60;;;21.30;71.40;;;;;;4983425;28;20041;-80
2023/10/03 00:30:31;;;;;;;10.45;6.40;;;21.30;71.40;;;;;;4982598;28;20038;-79
2023/10/03 00:32:58;;;;;;;9.20;5.18;;;21.30;71.40;;;;;;4998842;28;20033;-79
2023/10/03 00:35:26;;;;;;;10.05;5.72;;;21.20;71.40;;;;;;4999186;28;20029;-79
2023/10/03 00:37:53;;;;;;;8.55;5.15;;;21.20;71.40;;;;;;4998416;28;20065;-79
2023/10/03 00:42:50;;;;;;;9.63;5.78;;;21.20;71.40;;;;;;5016390;28;20068;-79
2023/10/03 00:45:22;;;;;;;9.07;5.38;;;21.20;71.40;;;;;;4966856;28;20136;-78
2023/10/03 00:47:49;;;;;;;9.73;5.57;;;21.20;71.50;;;;;;4999137;28;20132;-79
2023/10/03 00:50:23;;;;;;;9.68;5.35;;;21.20;71.40;;;;;;5015588;28;20038;-78
2023/10/03 00:52:56;;;;;;;8.25;5.30;;;21.20;71.50;;;;;;4983090;28;20439;-79
2023/10/03 00:55:47;;;;;;;10.07;5.43;;;21.10;71.40;;;;;;4998451;28;20029;-79
2023/10/03 01:00:43;;;;;;;8.32;4.90;;;21.10;71.50;;;;;;5016421;28;20045;-79
2023/10/03 01:03:28;;;;;;;10.02;5.85;;;21.10;71.50;;;;;;4998409;28;20486;-78
2023/10/03 01:05:57;;;;;;;9.38;5.50;;;21.10;71.60;;;;;;5014340;28;20474;-79
2023/10/03 01:08:25;;;;;;;9.60;5.50;;;21.10;71.60;;;;;;4997992;28;20053;-77
2023/10/03 01:10:51;;;;;;;10.13;5.85;;;21.10;71.60;;;;;;5014369;28;20038;-78
2023/10/03 01:13:19;;;;;;;9.15;5.63;;;21.00;71.50;;;;;;4981682;28;20133;-78
2023/10/03 01:15:49;;;;;;;8.02;4.93;;;21.00;71.50;;;;;;4998173;28;20036;-79
2023/10/03 01:18:20;;;;;;;9.68;6.00;;;21.00;71.60;;;;;;4998113;28;20360;-79
2023/10/03 01:20:50;;;;;;;11.30;6.55;;;21.00;71.60;;;;;;4981788;28;20525;-79
2023/10/03 01:23:16;;;;;;;9.05;5.57;;;21.00;71.60;;;;;;4997634;28;20038;-78
2023/10/03 01:25:43;;;;;;;9.50;5.70;;;21.00;71.60;;;;;;4997893;28;20037;-78
2023/10/03 01:28:13;;;;;;;9.77;6.20;;;20.90;71.60;;;;;;4997644;28;20088;-78
2023/10/03 01:30:43;;;;;;;9.15;5.45;;;20.90;71.60;;;;;;5013645;28;20034;-78
2023/10/03 01:33:11;;;;;;;8.77;5.50;;;21.00;71.60;;;;;;4997842;28;20026;-79
2023/10/03 01:35:37;;;;;;;9.90;5.28;;;20.90;71.60;;;;;;4998162;28;20084;-78
2023/10/03 01:38:05;;;;;;;10.65;5.90;;;20.90;71.60;;;;;;4997335;28;20427;-79
2023/10/03 01:40:31;;;;;;;9.30;5.50;;;20.90;71.60;;;;;;4997263;28;20033;-78
2023/10/03 01:42:57;;;;;;;9.60;5.40;;;20.90;71.70;;;;;;4997497;28;20033;-78
2023/10/03 01:45:25;;;;;;;9.50;5.28;;;20.90;71.70;;;;;;4997426;28;20065;-80
2023/10/03 01:47:52;;;;;;;9.88;5.65;;;20.90;71.70;;;;;;4997140;28;20030;-79
2023/10/03 01:50:19;;;;;;;10.65;5.90;;;20.80;71.70;;;;;;5013378;28;20529;-79
2023/10/03 01:52:49;;;;;;;8.38;5.22;;;20.80;71.70;;;;;;4996983;28;20041;-79
2023/10/03 01:55:18;;;;;;;9.82;5.47;;;20.80;71.70;;;;;;4980867;28;20360;-78
2023/10/03 01:57:46;;;;;;;10.32;5.80;;;20.80;71.70;;;;;;4998051;28;20034;-78
2023/10/03 02:00:26;;;;;;;9.63;5.30;;;20.80;71.70;;;;;;4997984;28;20080;-78
2023/10/03 02:02:53;;;;;;;9.82;5.43;;;20.80;71.80;;;;;;5013835;28;20029;-78
2023/10/03 02:05:24;;;;;;;9.27;5.50;;;20.70;71.70;;;;;;4997220;28;20483;-78
2023/10/03 02:07:55;;;;;;;9.57;5.72;;;20.70;71.70;;;;;;5013473;28;20042;-78
2023/10/03 02:10:22;;;;;;;9.02;5.57;;;20.80;71.80;;;;;;5013613;28;20030;-78
2023/10/03 02:12:48;;;;;;;10.02;6.15;;;20.70;71.70;;;;;;5013133;28;20383;-78
2023/10/03 02:15:23;;;;;;;10.00;5.60;;;20.70;71.70;;;;;;4997747;28;20057;-78
2023/10/03 02:17:54;;;;;;;8.57;5.13;;;20.70;71.80;;;;;;5013138;28;20225;-78
2023/10/03 02:20:30;;;;;;;9.45;4.93;;;20.70;71.80;;;;;;5013477;28;20037;-79
2023/10/03 02:22:57;;;;;;;16.30;6.40;;;20.70;71.90;;;;;;5013477;28;20061;-78
2023/10/03 02:25:28;;;;;;;9.43;5.40;;;20.70;71.80;;;;;;4997054;28;20026;-79
2023/10/03 02:27:55;;;;;;;9.77;5.40;;;20.70;71.80;;;;;;4996722;28;20129;-78
2023/10/03 02:30:27;;;;;;;10.27;5.72;;;20.70;71.80;;;;;;4980703;28;20382;-78
2023/10/03 02:32:54;;;;;;;10.10;5.93;;;20.60;71.80;;;;;;5012308;28;20133;-78
2023/10/03 02:35:26;;;;;;;9.88;6.00;;;20.60;71.80;;;;;;4996273;28;20030;-79
2023/10/03 02:37:56;;;;;;;10.15;5.57;;;20.60;71.80;;;;;;4964785;28;20124;-79
2023/10/03 02:40:27;;;;;;;10.25;6.03;;;20.60;71.80;;;;;;4997619;28;20080;-78
2023/10/03 02:42:54;;;;;;;10.75;6.32;;;20.60;71.90;;;;;;4996959;28;20454;-79
2023/10/03 02:45:23;;;;;;;9.82;5.80;;;20.60;71.90;;;;;;4980205;28;20026;-78
2023/10/03 02:47:56;;;;;;;10.25;5.28;;;20.60;72.00;;;;;;5012297;28;20062;-79
2023/10/03 02:50:24;;;;;;;10.93;5.72;;;20.50;72.00;;;;;;4996631;28;20030;-78
2023/10/03 02:52:56;;;;;;;9.85;5.60;;;20.50;72.00;;;;;;4996064;28;20132;-78
2023/10/03 02:55:22;;;;;;;9.43;5.72;;;20.50;72.00;;;;;;5012519;28;20052;-78
2023/10/03 02:57:49;;;;;;;9.15;5.70;;;20.50;72.00;;;;;;4964175;28;20030;-78
2023/10/03 03:00:15;;;;;;;9.20;5.32;;;20.50;72.00;;;;;;4980835;28;20026;-78
2023/10/03 03:02:50;;;;;;;8.65;4.97;;;20.50;72.00;;;;;;4979896;28;20038;-78
2023/10/03 03:05:22;;;;;;;9.52;5.80;;;20.50;72.10;;;;;;4981541;28;20120;-78
2023/10/03 03:07:49;;;;;;;9.77;6.03;;;20.50;72.10;;;;;;4980318;28;20382;-78
2023/10/03 03:10:21;;;;;;;8.88;5.05;;;20.50;72.10;;;;;;4995908;28;20052;-79
2023/10/03 03:12:47;;;;;;;11.23;5.95;;;20.50;72.10;;;;;;5012370;28;20046;-78
2023/10/03 03:15:23;;;;;;;10.32;5.70;;;20.40;72.10;;;;;;5013216;28;20414;-78
2023/10/03 03:17:50;;;;;;;11.30;5.75;;;20.50;72.10;;;;;;4997722;28;20030;-78
2023/10/03 03:20:27;;;;;;;9.88;5.40;;;20.50;72.10;;;;;;5012380;28;20458;-78
2023/10/03 03:22:53;;;;;;;10.43;5.70;;;20.50;72.10;;;;;;4997584;28;20034;-78
2023/10/03 03:25:36;;;;;;;10.75;6.15;;;20.50;72.10;;;;;;4995766;28;20041;-78
2023/10/03 03:28:15;;;;;;;10.80;5.65;;;20.40;72.10;;;;;;4981597;28;20034;-79
2023/10/03 03:30:54;;;;;;;10.30;5.70;;;20.40;72.10;;;;;;4995541;28;20516;-79
2023/10/03 03:33:20;;;;;;;10.20;5.88;;;20.50;72.20;;;;;;5012096;28;20045;-77
2023/10/03 03:35:47;;;;;;;9.48;5.38;;;20.40;72.10;;;;;;4996461;28;20483;-78
2023/10/03 03:38:18;;;;;;;9.13;5.63;;;20.40;72.10;;;;;;4995620;28;20034;-78
2023/10/03 03:40:57;;;;;;;9.57;5.60;;;20.40;72.10;;;;;;4979527;28;20115;-79
2023/10/03 03:43:24;;;;;;;10.32;5.93;;;20.40;72.10;;;;;;5012095;28;20034;-79
2023/10/03 03:45:51;;;;;;;10.13;6.18;;;20.50;72.20;;;;;;4999254;28;20089;-79
2023/10/03 03:48:19;;;;;;;9.40;5.68;;;20.50;72.10;;;;;;5016807;28;20061;-78
2023/10/03 03:50:45;;;;;;;10.05;5.80;;;20.50;72.10;;;;;;4999809;28;20092;-78
2023/10/03 03:53:10;;;;;;;9.80;5.68;;;20.50;72.20;;;;;;5016579;28;20038;-78
2023/10/03 03:55:37;;;;;;;9.75;5.55;;;20.50;72.20;;;;;;4999604;28;20057;-78
2023/10/03 03:58:18;;;;;;;10.02;5.70;;;20.50;72.10;;;;;;4999983;28;20440;-78
2023/10/03 04:00:51;;;;;;;10.38;5.63;;;20.50;72.10;;;;;;5016757;28;20100;-78
2023/10/03 04:03:18;;;;;;;10.43;5.97;;;20.50;72.10;;;;;;4999553;28;20103;-78
2023/10/03 04:05:46;;;;;;;9.30;5.13;;;20.50;72.10;;;;;;4999058;28;20034;-78
2023/10/03 04:08:12;;;;;;;11.07;6.25;;;20.50;72.10;;;;;;4999012;28;20030;-79
2023/10/03 04:10:38;;;;;;;11.10;6.53;;;20.50;72.10;;;;;;5016155;28;20125;-78
2023/10/03 04:13:10;;;;;;;10.10;5.93;;;20.50;72.10;;;;;;4998897;28;20074;-79
2023/10/03 04:15:40;;;;;;;9.77;5.50;;;20.50;72.10;;;;;;4999019;28;20040;-77
2023/10/03 04:18:07;;;;;;;11.40;6.03;;;20.50;72.10;;;;;;4982924;28;20402;-78
2023/10/03 04:20:35;;;;;;;10.65;6.10;;;20.50;72.10;;;;;;4998636;28;20040;-78
2023/10/03 04:23:07;;;;;;;10.85;6.38;;;20.50;72.10;;;;;;4999001;28;20030;-79
2023/10/03 04:25:33;;;;;;;8.63;4.68;;;20.50;72.10;;;;;;4999384;28;20077;-76
2023/10/03 04:28:01;;;;;;;10.55;5.97;;;20.60;72.10;;;;;;4998861;28;20060;-77
2023/10/03 04:30:27;;;;;;;8.38;4.97;;;20.50;72.10;;;;;;4998524;28;20052;-77
2023/10/03 04:32:54;;;;;;;8.13;5.05;;;20.60;72.10;;;;;;4998570;28;20041;-76
2023/10/03 04:35:22;;;;;;;9.95;5.68;;;20.60;72.10;;;;;;4999617;28;20030;-76
2023/10/03 04:37:51;;;;;;;10.10;6.00;;;20.60;72.10;;;;;;4998993;28;20105;-75
2023/10/03 04:40:22;;;;;;;9.82;5.43;;;20.60;72.10;;;;;;4998731;28;20116;-76
2023/10/03 04:42:53;;;;;;;9.60;5.68;;;20.60;72.10;;;;;;4998864;28;20143;-76
2023/10/03 04:45:19;;;;;;;9.18;5.40;;;20.60;72.10;;;;;;5015459;28;20034;-75
2023/10/03 04:47:49;;;;;;;9.07;5.18;;;20.60;72.10;;;;;;4966210;28;20028;-76
2023/10/03 04:50:18;;;;;;;9.02;5.25;;;20.60;72.10;;;;;;4998339;28;20475;-76
2023/10/03 04:52:48;;;;;;;8.88;4.82;;;20.60;72.80;;;;;;4998451;28;20096;-76
2023/10/03 04:55:16;;;;;;;8.52;4.82;;;20.60;72.10;;;;;;5015860;28;20471;-75
2023/10/03 04:57:46;;;;;;;8.90;4.95;;;20.60;72.10;;;;;;4981094;28;20045;-75
2023/10/03 05:00:15;;;;;;;9.10;5.40;;;20.70;72.20;;;;;;5016099;28;20101;-79
2023/10/03 05:02:52;;;;;;;9.07;5.13;;;20.70;72.20;;;;;;5014393;28;20088;-80
2023/10/03 05:05:25;;;;;;;9.65;4.93;;;20.70;72.30;;;;;;5015822;28;20030;-79
2023/10/03 05:07:53;;;;;;;8.10;4.72;;;20.70;72.20;;;;;;5015463;28;20025;-79
2023/10/03 05:10:23;;;;;;;7.22;4.10;;;20.70;72.20;;;;;;5014245;28;20464;-79
2023/10/03 05:12:51;;;;;;;9.00;4.63;;;20.70;72.20;;;;;;4982054;28;20046;-79
2023/10/03 05:15:17;;;;;;;7.93;3.83;;;20.70;72.20;;;;;;4981394;28;20038;-79
2023/10/03 05:17:44;;;;;;;6.85;4.18;;;20.70;72.20;;;;;;4997475;28;20033;-79
2023/10/03 05:20:15;;;;;;;7.97;4.03;;;20.70;72.20;;;;;;4998123;28;20062;-87
2023/10/03 05:22:41;;;;;;;7.60;4.30;;;20.70;72.20;;;;;;5015020;28;20080;-78
2023/10/03 05:25:11;;;;;;;8.77;4.10;;;20.70;72.10;;;;;;5013860;28;20030;-79
2023/10/03 05:27:39;;;;;;;5.57;3.80;;;20.80;72.20;;;;;;4981911;28;20030;-79
2023/10/03 05:30:06;;;;;;;7.32;3.50;;;20.70;72.10;;;;;;5013969;28;20101;-79
2023/10/03 05:32:32;;;;;;;6.07;3.25;;;20.70;72.10;;;;;;4981071;28;20046;-79
2023/10/03 05:34:58;;;;;;;5.82;3.33;;;20.80;72.20;;;;;;4997660;28;20041;-78
2023/10/03 05:37:25;;;;;;;5.95;3.53;;;20.80;72.20;;;;;;5013806;28;20116;-78
2023/10/03 05:39:51;;;;;;;6.32;3.90;;;20.80;72.20;;;;;;4949663;28;20037;-79
2023/10/03 05:42:17;;;;;;;6.00;3.47;;;20.80;72.20;;;;;;4982080;28;20046;-78
2023/10/03 05:44:46;;;;;;;5.00;3.00;;;20.80;72.20;;;;;;4997482;28;20026;-78
2023/10/03 05:47:12;;;;;;;5.97;3.10;;;20.80;72.20;;;;;;4998011;28;20038;-79
2023/10/03 05:49:38;;;;;;;5.25;3.42;;;20.80;72.20;;;;;;4997661;28;20475;-79
2023/10/03 05:52:06;;;;;;;4.53;2.70;;;20.80;72.20;;;;;;4997396;28;20046;-78
2023/10/03 05:54:32;;;;;;;4.97;2.78;;;20.80;72.20;;;;;;4997709;28;20084;-78
2023/10/03 05:56:58;;;;;;;5.82;3.13;;;20.80;72.20;;;;;;5013325;28;20038;-78
2023/10/03 05:59:26;;;;;;;4.80;2.95;;;20.80;72.20;;;;;;4998107;28;20121;-78
2023/10/03 06:01:52;;;;;;;4.95;3.00;;;20.80;72.20;;;;;;5013756;28;20038;-77
2023/10/03 06:04:18;;;;;;;5.50;2.90;;;20.80;72.20;;;;;;4981020;28;20395;-78
2023/10/03 06:06:44;;;;;;;3.97;2.53;;;20.80;72.20;;;;;;5014944;28;20026;-78
2023/10/03 06:09:12;;;;;;;4.63;3.22;;;20.90;72.30;;;;;;5013279;28;20560;-78
2023/10/03 06:11:39;;;;;;;5.80;3.28;;;20.80;72.20;;;;;;4996941;28;20038;-76
2023/10/03 06:14:05;;;;;;;4.47;2.95;;;20.80;72.20;;;;;;5012912;28;20068;-77
2023/10/03 06:16:31;;;;;;;4.60;2.60;;;20.90;72.20;;;;;;4980912;28;20053;-77
2023/10/03 06:18:57;;;;;;;4.18;2.70;;;20.90;72.20;;;;;;5013310;28;20332;-78
2023/10/03 06:21:23;;;;;;;4.07;2.42;;;20.90;72.20;;;;;;4996689;28;20112;-78
2023/10/03 06:23:52;;;;;;;4.13;2.58;;;20.90;72.20;;;;;;4964678;28;20117;-78
2023/10/03 06:26:18;;;;;;;4.85;2.80;;;20.90;72.20;;;;;;5013502;28;20034;-77
2023/10/03 06:28:50;;;;;;;4.10;2.70;;;20.90;72.20;;;;;;4964234;28;20364;-78
2023/10/03 06:31:17;;;;;;;3.70;2.42;;;20.90;72.20;;;;;;5014040;28;20131;-78
2023/10/03 06:33:43;;;;;;;4.32;2.72;;;20.90;72.10;;;;;;4981394;28;20088;-78
2023/10/03 06:36:09;;;;;;;5.63;2.70;;;20.90;72.10;;;;;;4996555;28;20101;-78
2023/10/03 06:38:36;;;;;;;4.50;2.63;;;20.90;72.10;;;;;;4980707;28;20096;-78
2023/10/03 06:41:07;;;;;;;4.38;2.55;;;20.90;72.10;;;;;;4980469;28;20038;-77
2023/10/03 06:43:33;;;;;;;3.72;2.35;;;20.90;72.10;;;;;;4996612;28;20061;-78
2023/10/03 06:45:59;;;;;;;4.82;2.67;;;20.90;72.10;;;;;;5012794;28;20038;-78
2023/10/03 06:48:26;;;;;;;3.60;2.55;;;20.90;72.10;;;;;;5012608;28;20493;-78
2023/10/03 06:50:52;;;;;;;4.40;2.63;;;21.00;72.10;;;;;;5014024;28;20037;-78
2023/10/03 06:53:19;;;;;;;4.10;2.55;;;21.00;72.10;;;;;;4996263;28;20030;-78
2023/10/03 06:55:45;;;;;;;5.00;2.65;;;21.00;72.10;;;;;;5013659;28;20042;-78
2023/10/03 06:58:11;;;;;;;3.72;2.53;;;21.00;72.00;;;;;;4996198;28;20497;-78
2023/10/03 07:00:37;;;;;;;3.83;2.47;;;21.00;72.00;;;;;;4996253;28;20030;-78
2023/10/03 07:03:03;;;;;;;5.07;2.70;;;21.00;72.00;;;;;;4996393;28;20033;-78
2023/10/03 07:05:29;;;;;;;3.65;2.53;;;21.00;72.00;;;;;;4964467;28;20044;-78
2023/10/03 07:07:55;;;;;;;3.67;2.47;;;21.00;72.00;;;;;;5012605;28;20037;-78
2023/10/03 07:10:25;;;;;;;3.85;2.25;;;21.00;72.00;;;;;;4980727;28;20030;-78
2023/10/03 07:12:51;;;;;;;3.92;2.33;;;21.00;72.00;;;;;;4995994;28;20058;-78
2023/10/03 07:15:18;;;;;;;4.80;2.50;;;21.00;72.00;;;;;;4996033;28;20033;-78
2023/10/03 07:17:44;;;;;;;4.13;2.40;;;21.00;72.00;;;;;;4980930;28;20041;-78
2023/10/03 07:20:12;;;;;;;3.85;2.47;;;21.00;72.00;;;;;;5016615;28;20030;-78
2023/10/03 07:22:39;;;;;;;3.17;2.30;;;21.10;72.10;;;;;;5019150;28;20072;-78
2023/10/03 07:25:09;;;;;;;4.47;2.70;;;21.10;72.10;;;;;;5019680;28;20410;-78
2023/10/03 07:27:36;;;;;;;4.30;2.38;;;21.10;72.10;;;;;;5002818;28;20061;-78
2023/10/03 07:30:05;;;;;;;4.53;2.63;;;21.10;72.10;;;;;;5002751;28;20026;-78
2023/10/03 07:32:32;;;;;;;3.60;2.28;;;21.10;72.10;;;;;;5003125;28;20099;-78
2023/10/03 07:34:59;;;;;;;4.28;2.80;;;21.10;72.00;;;;;;4986496;28;20030;-78
2023/10/03 07:37:25;;;;;;;3.95;2.58;;;21.10;72.00;;;;;;4986296;28;20029;-78
2023/10/03 07:39:51;;;;;;;4.38;2.75;;;21.10;72.00;;;;;;4986308;28;20422;-78
2023/10/03 07:42:19;;;;;;;3.20;2.20;;;21.10;72.00;;;;;;5002399;28;20042;-78
2023/10/03 07:44:44;;;;;;;5.13;2.67;;;21.10;72.00;;;;;;5003096;28;20129;-78
2023/10/03 07:47:12;;;;;;;4.20;2.60;;;21.20;72.00;;;;;;5019545;28;20120;-78
2023/10/03 07:49:41;;;;;;;4.07;2.60;;;21.20;72.00;;;;;;5002105;28;20034;-78
2023/10/03 07:52:07;;;;;;;3.22;2.40;;;21.20;72.00;;;;;;5002132;28;20045;-78
2023/10/03 07:54:36;;;;;;;3.78;2.17;;;21.20;72.00;;;;;;5002278;28;20030;-79
2023/10/03 07:57:05;;;;;;;4.40;2.63;;;21.20;72.00;;;;;;5018875;28;20360;-78
2023/10/03 07:59:34;;;;;;;3.45;2.55;;;21.20;72.00;;;;;;5002853;28;20041;-77
2023/10/03 08:02:10;;;;;;;3.70;2.40;;;21.20;72.00;;;;;;5018525;28;20034;-77
2023/10/03 08:04:37;;;;;;;4.15;2.78;;;21.20;72.00;;;;;;5004254;28;20471;-77
2023/10/03 08:07:07;;;;;;;3.42;2.50;;;21.20;72.00;;;;;;4970365;28;20477;-78
2023/10/03 08:09:33;;;;;;;4.07;2.58;;;21.30;72.10;;;;;;5018695;28;20033;-78
2023/10/03 08:11:59;;;;;;;4.68;2.45;;;21.20;72.00;;;;;;5018231;28;20064;-78
2023/10/03 08:14:25;;;;;;;4.32;2.40;;;21.30;72.00;;;;;;5002867;28;20458;-78
2023/10/03 08:16:56;;;;;;;3.53;2.35;;;21.30;72.10;;;;;;5002869;28;20033;-79
2023/10/03 08:19:22;;;;;;;3.60;2.33;;;21.30;72.10;;;;;;5003288;28;20045;-78
2023/10/03 08:21:55;;;;;;;5.05;2.63;;;21.30;72.00;;;;;;4986053;28;20038;-77
2023/10/03 08:24:24;;;;;;;3.22;2.22;;;21.30;72.00;;;;;;5019178;28;20033;-78
2023/10/03 08:27:01;;;;;;;3.65;2.45;;;21.30;72.00;;;;;;5019859;28;20537;-78
2023/10/03 08:29:27;;;;;;;3.30;2.33;;;21.30;72.00;;;;;;4986205;28;20034;-78
2023/10/03 08:31:57;;;;;;;3.30;1.95;;;21.30;72.00;;;;;;5000148;28;20029;-78
2023/10/03 08:34:30;;;;;;;3.67;2.25;;;21.30;72.00;;;;;;4999724;28;20038;-78
2023/10/03 08:37:00;;;;;;;3.28;1.92;;;21.30;72.00;;;;;;5016190;28;20109;-77
2023/10/03 08:39:27;;;;;;;3.13;1.88;;;21.30;72.00;;;;;;4999047;28;20037;-78
2023/10/03 08:42:13;;;;;;;3.10;2.00;;;21.30;72.00;;;;;;4982755;28;20479;-78
2023/10/03 08:44:49;;;;;;;3.10;2.20;;;21.30;72.00;;;;;;4998715;28;20046;-78
2023/10/03 08:47:17;;;;;;;3.05;2.20;;;21.30;72.00;;;;;;4998706;28;20022;-78
2023/10/03 08:49:48;;;;;;;2.53;1.88;;;21.30;72.00;;;;;;4998570;28;20033;-78
2023/10/03 08:52:14;;;;;;;3.53;1.85;;;21.30;72.00;;;;;;4998492;28;20034;-78
2023/10/03 08:54:43;;;;;;;2.85;1.77;;;21.30;72.00;;;;;;5014898;28;20049;-78
2023/10/03 08:57:12;;;;;;;3.47;1.95;;;21.30;71.90;;;;;;4982433;28;20113;-78
2023/10/03 08:59:41;;;;;;;2.95;1.80;;;21.40;72.00;;;;;;5014734;28;20034;-79
2023/10/03 09:02:14;;;;;;;2.38;1.67;;;21.40;72.00;;;;;;4982959;28;20120;-78
2023/10/03 09:04:40;;;;;;;2.15;1.58;;;21.40;72.00;;;;;;5015666;28;20026;-78
2023/10/03 09:07:09;;;;;;;3.47;1.83;;;21.40;72.00;;;;;;4998205;28;20069;-79
2023/10/03 09:09:42;;;;;;;3.03;1.33;;;21.40;72.00;;;;;;4982292;28;20092;-80
2023/10/03 09:12:09;;;;;;;2.22;1.50;;;21.40;72.00;;;;;;4983105;28;20052;-78
2023/10/03 09:14:38;;;;;;;2.35;1.17;;;21.40;72.00;;;;;;4981833;28;20180;-79
2023/10/03 09:17:04;;;;;;;2.28;1.38;;;21.40;72.10;;;;;;5014557;28;20398;-79
2023/10/03 09:19:46;;;;;;;1.20;1.10;;;21.40;72.10;;;;;;5014320;28;20541;-78
2023/10/03 09:22:15;;;;;;;1.80;1.30;;;21.40;72.10;;;;;;4997893;28;20041;-78
2023/10/03 09:24:45;;;;;;;2.72;1.42;;;21.40;72.10;;;;;;4981927;28;20026;-79
2023/10/03 09:27:17;;;;;;;3.50;1.67;;;21.40;72.10;;;;;;5015191;28;20115;-79
2023/10/03 09:29:49;;;;;;;1.98;1.40;;;21.40;72.10;;;;;;4983004;28;20474;-80
2023/10/03 09:32:20;;;;;;;1.83;1.45;;;21.40;72.10;;;;;;5014777;28;20065;-79
2023/10/03 09:34:56;;;;;;;2.08;1.45;;;21.40;72.10;;;;;;4998096;28;20049;-78
2023/10/03 09:37:30;;;;;;;2.72;1.52;;;21.40;72.10;;;;;;5013893;28;20076;-79
2023/10/03 09:40:00;;;;;;;2.08;1.40;;;21.40;72.10;;;;;;4998355;28;20041;-79
2023/10/03 09:42:27;;;;;;;2.67;1.30;;;21.40;72.00;;;;;;4997677;28;20092;-79
2023/10/03 09:44:59;;;;;;;1.73;1.20;;;21.40;72.00;;;;;;4997364;28;20026;-80
2023/10/03 09:47:32;;;;;;;1.70;1.20;;;21.40;72.00;;;;;;4982353;28;20041;-80
2023/10/03 09:50:03;;;;;;;1.80;1.05;;;21.40;72.00;;;;;;4997517;28;20088;-79
2023/10/03 09:52:30;;;;;;;1.20;1.10;;;21.40;72.00;;;;;;4982856;28;20061;-79
2023/10/03 09:55:00;;;;;;;1.08;0.98;;;21.40;72.10;;;;;;5014554;28;20045;-80
2023/10/03 09:57:29;;;;;;;1.40;1.00;;;21.40;72.10;;;;;;4981400;28;20034;-80
2023/10/03 09:59:57;;;;;;;1.45;1.10;;;21.40;72.10;;;;;;4997108;28;20029;-79
2023/10/03 10:02:30;;;;;;;1.35;0.98;;;21.40;72.10;;;;;;4996980;28;20033;-80
2023/10/03 10:05:19;;;;;;;2.45;1.30;;;21.40;72.10;;;;;;5013532;28;20475;-80
2023/10/03 10:08:06;;;;;;;1.05;0.88;;;21.40;72.10;;;;;;5014708;28;20034;-79
2023/10/03 10:10:35;;;;;;;1.55;1.23;;;21.40;72.00;;;;;;4997787;28;20034;-82
2023/10/03 10:13:12;;;;;;;2.38;0.95;;;21.40;72.00;;;;;;4993539;28;20061;-80
2023/10/03 10:16:20;;;;;;;1.58;1.10;;;21.40;72.00;;;;;;5009923;28;20080;-76
2023/10/03 10:18:46;;;;;;;1.80;0.93;;;21.40;72.00;;;;;;5010429;28;20064;-80
2023/10/03 10:21:39;;;;;;;1.23;1.10;;;21.40;71.90;;;;;;4993540;28;20479;-79
2023/10/03 10:24:20;;;;;;;0.82;0.80;;;21.40;72.00;;;;;;5010171;28;20023;-79
2023/10/03 10:26:52;;;;;;;1.40;1.10;;;21.40;71.90;;;;;;5009874;28;20523;-80
2023/10/03 10:29:20;;;;;;;1.58;0.90;;;21.40;71.90;;;;;;4993519;28;20034;-79
2023/10/03 10:31:57;;;;;;;0.98;0.90;;;21.40;71.90;;;;;;5009950;28;20041;-79
2023/10/03 10:34:47;;;;;;;1.13;1.00;;;21.50;71.90;;;;;;4979404;28;20026;-79
2023/10/03 10:37:15;;;;;;;2.22;1.00;;;21.50;71.90;;;;;;4993414;28;20464;-79
2023/10/03 10:39:56;;;;;;;1.30;1.00;;;21.50;71.80;;;;;;5009972;28;20467;-80
2023/10/03 10:42:26;;;;;;;1.08;0.90;;;21.50;71.90;;;;;;4993241;28;20045;-79
2023/10/03 10:45:13;;;;;;;0.73;0.70;;;21.50;71.80;;;;;;4993379;28;20077;-78
2023/10/03 10:47:45;;;;;;;0.75;0.70;;;21.50;71.80;;;;;;5009703;28;20033;-79
2023/10/03 10:50:11;;;;;;;1.15;0.80;;;21.50;71.70;;;;;;5010188;28;20044;-80
2023/10/03 10:52:55;;;;;;;0.70;0.70;;;21.50;71.70;;;;;;4976973;28;20474;-79
2023/10/03 10:55:26;;;;;;;1.80;1.20;;;21.50;71.70;;;;;;5008687;28;20097;-80
2023/10/03 10:58:08;;;;;;;1.35;0.90;;;21.50;71.70;;;;;;4995158;28;20054;-79
2023/10/03 11:00:34;;;;;;;1.02;0.80;;;21.50;71.70;;;;;;5009884;28;20475;-80
2023/10/03 11:03:04;;;;;;;0.68;0.68;;;21.50;71.60;;;;;;4961576;28;20039;-79
2023/10/03 11:06:00;;;;;;;1.48;1.00;;;21.50;71.70;;;;;;4993663;28;20444;-85
2023/10/03 11:08:26;;;;;;;0.80;0.70;;;21.50;71.70;;;;;;4964089;28;20042;-78
2023/10/03 11:10:53;;;;;;;0.93;0.80;;;21.50;71.50;;;;;;4976228;28;20491;-78
2023/10/03 11:13:20;;;;;;;0.93;0.82;;;21.60;71.60;;;;;;4992185;28;20101;-78
2023/10/03 11:15:50;;;;;;;0.80;0.80;;;21.60;71.60;;;;;;4993860;28;20033;-78
2023/10/03 11:18:26;;;;;;;0.93;0.68;;;21.60;71.60;;;;;;4975973;28;20518;-78
2023/10/03 11:20:52;;;;;;;1.40;0.90;;;21.60;71.60;;;;;;4992860;28;20038;-78
2023/10/03 11:23:18;;;;;;;1.27;0.90;;;21.60;71.50;;;;;;4977005;28;20092;-78
2023/10/03 11:25:57;;;;;;;1.00;0.90;;;21.60;71.50;;;;;;4977331;28;20038;-78
2023/10/03 11:28:29;;;;;;;0.88;0.80;;;21.60;71.60;;;;;;5009185;28;20030;-78
2023/10/03 11:31:03;;;;;;;1.40;0.90;;;21.60;71.50;;;;;;4992549;28;20062;-78
2023/10/03 11:33:42;;;;;;;1.33;0.80;;;21.50;71.50;;;;;;4961944;28;20100;-77
2023/10/03 11:36:08;;;;;;;1.27;0.80;;;21.60;71.50;;;;;;5009299;28;20073;-78
2023/10/03 11:38:48;;;;;;;1.30;0.80;;;21.50;71.50;;;;;;4976723;28;20078;-78
2023/10/03 11:41:28;;;;;;;0.98;0.80;;;21.50;71.50;;;;;;4993064;28;20034;-79
2023/10/03 11:43:54;;;;;;;1.38;0.75;;;21.50;71.50;;;;;;4993205;28;20050;-78
2023/10/03 11:46:20;;;;;;;1.00;0.88;;;21.50;71.50;;;;;;4993006;28;20473;-79
2023/10/03 11:48:45;;;;;;;1.50;1.00;;;21.50;71.50;;;;;;4976860;28;20037;-78
2023/10/03 11:51:13;;;;;;;0.88;0.80;;;21.50;71.50;;;;;;4994016;28;20034;-80
2023/10/03 11:53:38;;;;;;;1.38;0.80;;;21.50;71.60;;;;;;4992855;28;20038;-79
2023/10/03 11:56:04;;;;;;;1.10;0.90;;;21.50;71.60;;;;;;4960462;28;20100;-79
2023/10/03 11:58:30;;;;;;;0.80;0.80;;;21.50;71.60;;;;;;5008571;28;20034;-79
2023/10/03 12:00:57;;;;;;;1.40;0.82;;;21.50;71.60;;;;;;4976320;28;20026;-78
2023/10/03 12:03:23;;;;;;;1.00;0.82;;;21.50;71.60;;;;;;5008836;28;20034;-78
2023/10/03 12:05:52;;;;;;;1.15;0.90;;;21.50;71.60;;;;;;4993751;28;20471;-78
2023/10/03 12:08:18;;;;;;;1.38;0.80;;;21.40;71.50;;;;;;4995760;28;20037;-79
2023/10/03 12:10:44;;;;;;;1.20;0.85;;;21.40;71.50;;;;;;4979945;28;20034;-79
2023/10/03 12:13:10;;;;;;;1.70;0.77;;;21.40;71.50;;;;;;5007564;28;20062;-79
2023/10/03 12:15:42;;;;;;;0.85;0.75;;;21.40;71.50;;;;;;4983087;28;20053;-78
2023/10/03 12:18:09;;;;;;;1.27;0.68;;;21.40;71.50;;;;;;5000398;28;20415;-77
2023/10/03 12:20:38;;;;;;;1.52;0.90;;;21.40;71.50;;;;;;4999859;28;20025;-78
2023/10/03 12:23:04;;;;;;;1.13;0.77;;;21.40;71.50;;;;;;4983190;28;20034;-77
2023/10/03 12:25:30;;;;;;;1.30;0.98;;;21.40;71.50;;;;;;4999312;28;20038;-78
2023/10/03 12:27:55;;;;;;;2.40;1.00;;;21.40;71.50;;;;;;4982785;28;20037;-78
2023/10/03 12:30:22;;;;;;;0.90;0.77;;;21.30;71.40;;;;;;4999225;28;20049;-78
2023/10/03 12:32:49;;;;;;;1.10;0.90;;;21.30;71.40;;;;;;5016953;28;20471;-78
2023/10/03 12:35:16;;;;;;;1.05;0.77;;;21.30;71.40;;;;;;4998644;28;20041;-78
2023/10/03 12:37:47;;;;;;;1.15;0.77;;;21.30;71.40;;;;;;4999627;28;20036;-78
2023/10/03 12:40:16;;;;;;;1.88;1.08;;;21.30;71.40;;;;;;4999718;28;20374;-78
2023/10/03 12:42:47;;;;;;;1.73;0.80;;;21.30;71.40;;;;;;4998998;28;20041;-77
2023/10/03 12:45:16;;;;;;;1.05;0.80;;;21.20;71.30;;;;;;5015963;28;20080;-78
2023/10/03 12:47:48;;;;;;;1.80;1.15;;;21.20;71.30;;;;;;4998459;28;20076;-78
2023/10/03 12:50:23;;;;;;;2.47;1.00;;;21.20;71.30;;;;;;4998924;28;20087;-78
2023/10/03 12:52:53;;;;;;;0.98;0.88;;;21.20;71.40;;;;;;4998496;28;20060;-78
2023/10/03 12:55:20;;;;;;;0.82;0.75;;;21.20;71.30;;;;;;4998818;28;20092;-77
2023/10/03 12:57:48;;;;;;;1.67;1.00;;;21.20;71.40;;;;;;4982298;28;20030;-77
2023/10/03 13:00:20;;;;;;;1.77;1.30;;;21.10;71.30;;;;;;4998478;28;20038;-77
2023/10/03 13:02:49;;;;;;;1.98;1.15;;;21.10;71.30;;;;;;5015491;28;20092;-77